sensor_id;sensor_type;location;lat;lon;timestamp;temperature;humidity
10270;DHT22;5180;50.832;5.390;2022-12-05T00:01:26;3.50;99.90
10270;DHT22;5180;50.832;5.390;2022-12-05T00:03:54;3.50;99.90
10270;DHT22;5180;50.832;5.390;2022-12-05T00:06:21;3.60;99.90
10270;DHT22;5180;50.832;5.390;2022-12-05T00:08:47;3.60;99.90
10270;DHT22;5180;50.832;5.390;2022-12-05T00:11:25;3.60;99.90
10270;DHT22;5180;50.832;5.390;2022-12-05T00:13:52;3.50;99.90
10270;DHT22;5180;50.832;5.390;2022-12-05T00:16:21;3.50;99.90
10270;DHT22;5180;50.832;5.390;2022-12-05T00:18:47;3.50;99.90
10270;DHT22;5180;50.832;5.390;2022-12-05T00:21:21;3.60;99.90
10270;DHT22;5180;50.832;5.390;2022-12-05T00:23:47;3.50;99.90
10270;DHT22;5180;50.832;5.390;2022-12-05T00:26:13;3.50;99.90
10270;DHT22;5180;50.832;5.390;2022-12-05T00:28:39;3.50;99.90
10270;DHT22;5180;50.832;5.390;2022-12-05T00:31:09;3.50;99.90
10270;DHT22;5180;50.832;5.390;2022-12-05T00:33:35;3.50;99.90
10270;DHT22;5180;50.832;5.390;2022-12-05T00:36:03;3.50;99.90
10270;DHT22;5180;50.832;5.390;2022-12-05T00:38:29;3.50;99.90
10270;DHT22;5180;50.832;5.390;2022-12-05T00:40:55;3.50;99.90
10270;DHT22;5180;50.832;5.390;2022-12-05T00:43:21;3.50;99.90
10270;DHT22;5180;50.832;5.390;2022-12-05T00:45:46;3.50;99.90
10270;DHT22;5180;50.832;5.390;2022-12-05T00:48:12;3.50;99.90
10270;DHT22;5180;50.832;5.390;2022-12-05T00:50:38;3.50;99.90
10270;DHT22;5180;50.832;5.390;2022-12-05T00:53:03;3.50;99.90
10270;DHT22;5180;50.832;5.390;2022-12-05T00:55:29;3.50;99.90
10270;DHT22;5180;50.832;5.390;2022-12-05T00:57:54;3.50;99.90
10270;DHT22;5180;50.832;5.390;2022-12-05T01:00:20;3.50;99.90
10270;DHT22;5180;50.832;5.390;2022-12-05T01:02:46;3.50;99.90
10270;DHT22;5180;50.832;5.390;2022-12-05T01:05:11;3.50;99.90
10270;DHT22;5180;50.832;5.390;2022-12-05T01:07:37;3.50;99.90
10270;DHT22;5180;50.832;5.390;2022-12-05T01:10:03;3.50;99.90
10270;DHT22;5180;50.832;5.390;2022-12-05T01:12:29;3.50;99.90
10270;DHT22;5180;50.832;5.390;2022-12-05T01:14:55;3.50;99.90
10270;DHT22;5180;50.832;5.390;2022-12-05T01:17:21;3.50;99.90
10270;DHT22;5180;50.832;5.390;2022-12-05T01:19:46;3.50;99.90
10270;DHT22;5180;50.832;5.390;2022-12-05T01:22:12;3.50;99.90
10270;DHT22;5180;50.832;5.390;2022-12-05T01:24:38;3.50;99.90
10270;DHT22;5180;50.832;5.390;2022-12-05T01:27:03;3.60;99.90
10270;DHT22;5180;50.832;5.390;2022-12-05T01:29:29;3.60;99.90
10270;DHT22;5180;50.832;5.390;2022-12-05T01:31:55;3.60;99.90
10270;DHT22;5180;50.832;5.390;2022-12-05T01:34:21;3.60;99.90
10270;DHT22;5180;50.832;5.390;2022-12-05T01:36:47;3.60;99.90
10270;DHT22;5180;50.832;5.390;2022-12-05T01:39:13;3.60;99.90
10270;DHT22;5180;50.832;5.390;2022-12-05T01:41:48;3.60;99.90
10270;DHT22;5180;50.832;5.390;2022-12-05T01:46:45;3.70;99.90
10270;DHT22;5180;50.832;5.390;2022-12-05T01:49:32;3.70;99.90
10270;DHT22;5180;50.832;5.390;2022-12-05T01:52:02;3.70;99.90
10270;DHT22;5180;50.832;5.390;2022-12-05T01:54:28;3.70;99.90
10270;DHT22;5180;50.832;5.390;2022-12-05T01:57:01;3.80;99.90
10270;DHT22;5180;50.832;5.390;2022-12-05T01:59:31;3.80;99.90
10270;DHT22;5180;50.832;5.390;2022-12-05T02:01:58;3.70;99.90
10270;DHT22;5180;50.832;5.390;2022-12-05T02:04:24;3.70;99.90
10270;DHT22;5180;50.832;5.390;2022-12-05T02:06:53;3.70;99.90
10270;DHT22;5180;50.832;5.390;2022-12-05T02:09:19;3.70;99.90
10270;DHT22;5180;50.832;5.390;2022-12-05T02:12:05;3.70;99.90
10270;DHT22;5180;50.832;5.390;2022-12-05T02:17:24;3.80;99.90
10270;DHT22;5180;50.832;5.390;2022-12-05T02:20:22;3.90;99.90
10270;DHT22;5180;50.832;5.390;2022-12-05T02:23:13;3.90;99.90
10270;DHT22;5180;50.832;5.390;2022-12-05T02:31:32;4.10;99.90
10270;DHT22;5180;50.832;5.390;2022-12-05T02:34:06;4.10;99.90
10270;DHT22;5180;50.832;5.390;2022-12-05T02:36:43;4.10;99.90
10270;DHT22;5180;50.832;5.390;2022-12-05T02:41:43;4.00;99.90
10270;DHT22;5180;50.832;5.390;2022-12-05T02:44:13;3.90;99.90
10270;DHT22;5180;50.832;5.390;2022-12-05T02:46:41;3.80;99.90
10270;DHT22;5180;50.832;5.390;2022-12-05T02:49:12;3.70;99.90
10270;DHT22;5180;50.832;5.390;2022-12-05T02:51:44;3.60;99.90
10270;DHT22;5180;50.832;5.390;2022-12-05T02:54:13;3.60;99.90
10270;DHT22;5180;50.832;5.390;2022-12-05T02:56:43;3.50;99.90
10270;DHT22;5180;50.832;5.390;2022-12-05T02:59:09;3.50;99.90
10270;DHT22;5180;50.832;5.390;2022-12-05T03:01:35;3.50;99.90
10270;DHT22;5180;50.832;5.390;2022-12-05T03:04:03;3.50;99.90
10270;DHT22;5180;50.832;5.390;2022-12-05T03:06:33;3.50;99.90
10270;DHT22;5180;50.832;5.390;2022-12-05T03:09:05;3.50;99.90
10270;DHT22;5180;50.832;5.390;2022-12-05T03:11:55;3.40;99.90
10270;DHT22;5180;50.832;5.390;2022-12-05T03:14:38;3.40;99.90
10270;DHT22;5180;50.832;5.390;2022-12-05T03:17:09;3.40;99.90
10270;DHT22;5180;50.832;5.390;2022-12-05T03:19:48;3.30;99.90
10270;DHT22;5180;50.832;5.390;2022-12-05T03:22:46;3.30;99.90
10270;DHT22;5180;50.832;5.390;2022-12-05T03:25:13;3.30;99.90
10270;DHT22;5180;50.832;5.390;2022-12-05T03:30:16;3.30;99.90
10270;DHT22;5180;50.832;5.390;2022-12-05T03:38:29;3.20;99.90
10270;DHT22;5180;50.832;5.390;2022-12-05T03:41:08;3.20;99.90
10270;DHT22;5180;50.832;5.390;2022-12-05T03:43:54;3.10;99.90
10270;DHT22;5180;50.832;5.390;2022-12-05T03:49:40;3.10;99.90
10270;DHT22;5180;50.832;5.390;2022-12-05T03:52:15;3.00;99.90
10270;DHT22;5180;50.832;5.390;2022-12-05T03:54:48;3.10;99.90
10270;DHT22;5180;50.832;5.390;2022-12-05T03:57:23;3.10;99.90
10270;DHT22;5180;50.832;5.390;2022-12-05T04:00:00;3.10;99.90
10270;DHT22;5180;50.832;5.390;2022-12-05T04:02:51;3.00;99.90
10270;DHT22;5180;50.832;5.390;2022-12-05T04:08:31;3.10;99.90
10270;DHT22;5180;50.832;5.390;2022-12-05T04:11:05;3.10;99.90
10270;DHT22;5180;50.832;5.390;2022-12-05T04:13:37;3.10;99.90
10270;DHT22;5180;50.832;5.390;2022-12-05T04:16:10;3.10;99.90
10270;DHT22;5180;50.832;5.390;2022-12-05T04:19:25;3.10;99.90
10270;DHT22;5180;50.832;5.390;2022-12-05T04:21:54;3.10;99.90
10270;DHT22;5180;50.832;5.390;2022-12-05T04:24:27;3.10;99.90
10270;DHT22;5180;50.832;5.390;2022-12-05T04:27:21;3.10;99.90
10270;DHT22;5180;50.832;5.390;2022-12-05T04:30:00;3.10;99.90
10270;DHT22;5180;50.832;5.390;2022-12-05T04:32:30;3.10;99.90
10270;DHT22;5180;50.832;5.390;2022-12-05T04:35:04;3.10;99.90
10270;DHT22;5180;50.832;5.390;2022-12-05T04:37:34;3.10;99.90
10270;DHT22;5180;50.832;5.390;2022-12-05T04:40:09;3.10;99.90
10270;DHT22;5180;50.832;5.390;2022-12-05T04:42:36;3.10;99.90
10270;DHT22;5180;50.832;5.390;2022-12-05T04:45:06;3.10;99.90
10270;DHT22;5180;50.832;5.390;2022-12-05T04:47:40;3.10;99.90
10270;DHT22;5180;50.832;5.390;2022-12-05T04:50:08;3.10;99.90
10270;DHT22;5180;50.832;5.390;2022-12-05T04:52:36;3.10;99.90
10270;DHT22;5180;50.832;5.390;2022-12-05T04:55:14;3.10;99.90
10270;DHT22;5180;50.832;5.390;2022-12-05T04:57:53;3.10;99.90
10270;DHT22;5180;50.832;5.390;2022-12-05T05:00:20;3.10;99.90
10270;DHT22;5180;50.832;5.390;2022-12-05T05:02:53;3.10;99.90
10270;DHT22;5180;50.832;5.390;2022-12-05T05:05:21;3.10;99.90
10270;DHT22;5180;50.832;5.390;2022-12-05T05:07:51;3.20;99.90
10270;DHT22;5180;50.832;5.390;2022-12-05T05:10:26;3.20;99.90
10270;DHT22;5180;50.832;5.390;2022-12-05T05:12:55;3.20;99.90
10270;DHT22;5180;50.832;5.390;2022-12-05T05:15:20;3.30;99.90
10270;DHT22;5180;50.832;5.390;2022-12-05T05:17:46;3.30;99.90
10270;DHT22;5180;50.832;5.390;2022-12-05T05:20:12;3.30;99.90
10270;DHT22;5180;50.832;5.390;2022-12-05T05:22:50;3.30;99.90
10270;DHT22;5180;50.832;5.390;2022-12-05T05:25:16;3.30;99.90
10270;DHT22;5180;50.832;5.390;2022-12-05T05:27:42;3.30;99.90
10270;DHT22;5180;50.832;5.390;2022-12-05T05:30:08;3.30;99.90
10270;DHT22;5180;50.832;5.390;2022-12-05T05:32:34;3.30;99.90
10270;DHT22;5180;50.832;5.390;2022-12-05T05:35:00;3.30;99.90
10270;DHT22;5180;50.832;5.390;2022-12-05T05:37:25;3.30;99.90
10270;DHT22;5180;50.832;5.390;2022-12-05T05:39:51;3.30;99.90
10270;DHT22;5180;50.832;5.390;2022-12-05T05:42:17;3.30;99.90
10270;DHT22;5180;50.832;5.390;2022-12-05T05:44:42;3.30;99.90
10270;DHT22;5180;50.832;5.390;2022-12-05T05:47:08;3.30;99.90
10270;DHT22;5180;50.832;5.390;2022-12-05T05:49:33;3.30;99.90
10270;DHT22;5180;50.832;5.390;2022-12-05T05:51:59;3.30;99.90
10270;DHT22;5180;50.832;5.390;2022-12-05T05:54:24;3.30;99.90
10270;DHT22;5180;50.832;5.390;2022-12-05T05:56:50;3.20;99.90
10270;DHT22;5180;50.832;5.390;2022-12-05T05:59:16;3.20;99.90
10270;DHT22;5180;50.832;5.390;2022-12-05T06:01:41;3.20;99.90
10270;DHT22;5180;50.832;5.390;2022-12-05T06:04:07;3.10;99.90
10270;DHT22;5180;50.832;5.390;2022-12-05T06:06:33;3.00;99.90
10270;DHT22;5180;50.832;5.390;2022-12-05T06:08:59;3.00;99.90
10270;DHT22;5180;50.832;5.390;2022-12-05T06:11:26;3.00;99.90
10270;DHT22;5180;50.832;5.390;2022-12-05T06:13:55;3.00;99.90
10270;DHT22;5180;50.832;5.390;2022-12-05T06:16:22;3.00;99.90
10270;DHT22;5180;50.832;5.390;2022-12-05T06:18:48;3.00;99.90
10270;DHT22;5180;50.832;5.390;2022-12-05T06:21:14;3.00;99.90
10270;DHT22;5180;50.832;5.390;2022-12-05T06:23:40;3.00;99.90
10270;DHT22;5180;50.832;5.390;2022-12-05T06:26:10;3.00;99.90
10270;DHT22;5180;50.832;5.390;2022-12-05T06:28:36;3.00;99.90
10270;DHT22;5180;50.832;5.390;2022-12-05T06:31:14;3.00;99.90
10270;DHT22;5180;50.832;5.390;2022-12-05T06:33:41;3.00;99.90
10270;DHT22;5180;50.832;5.390;2022-12-05T06:36:12;3.00;99.90
10270;DHT22;5180;50.832;5.390;2022-12-05T06:38:39;3.00;99.90
10270;DHT22;5180;50.832;5.390;2022-12-05T06:41:10;3.00;99.90
10270;DHT22;5180;50.832;5.390;2022-12-05T06:43:36;3.00;99.90
10270;DHT22;5180;50.832;5.390;2022-12-05T06:46:06;3.00;99.90
10270;DHT22;5180;50.832;5.390;2022-12-05T06:48:31;3.00;99.90
10270;DHT22;5180;50.832;5.390;2022-12-05T06:50:57;3.00;99.90
10270;DHT22;5180;50.832;5.390;2022-12-05T06:53:23;3.00;99.90
10270;DHT22;5180;50.832;5.390;2022-12-05T06:55:56;3.00;99.90
10270;DHT22;5180;50.832;5.390;2022-12-05T06:58:22;3.00;99.90
10270;DHT22;5180;50.832;5.390;2022-12-05T07:00:48;3.00;99.90
10270;DHT22;5180;50.832;5.390;2022-12-05T07:03:32;3.00;99.90
10270;DHT22;5180;50.832;5.390;2022-12-05T07:06:03;3.00;99.90
10270;DHT22;5180;50.832;5.390;2022-12-05T07:08:30;2.90;99.90
10270;DHT22;5180;50.832;5.390;2022-12-05T07:10:56;2.90;99.90
10270;DHT22;5180;50.832;5.390;2022-12-05T07:13:22;2.90;99.90
10270;DHT22;5180;50.832;5.390;2022-12-05T07:15:48;2.80;99.90
10270;DHT22;5180;50.832;5.390;2022-12-05T07:18:15;2.70;99.90
10270;DHT22;5180;50.832;5.390;2022-12-05T07:20:42;2.70;99.90
10270;DHT22;5180;50.832;5.390;2022-12-05T07:23:08;2.60;99.90
10270;DHT22;5180;50.832;5.390;2022-12-05T07:25:38;2.60;99.90
10270;DHT22;5180;50.832;5.390;2022-12-05T07:28:04;2.60;99.90
10270;DHT22;5180;50.832;5.390;2022-12-05T07:30:30;2.50;99.90
10270;DHT22;5180;50.832;5.390;2022-12-05T07:32:56;2.60;99.90
10270;DHT22;5180;50.832;5.390;2022-12-05T07:35:21;2.60;99.90
10270;DHT22;5180;50.832;5.390;2022-12-05T07:37:47;2.50;99.90
10270;DHT22;5180;50.832;5.390;2022-12-05T07:40:13;2.50;99.90
10270;DHT22;5180;50.832;5.390;2022-12-05T07:42:38;2.50;99.90
10270;DHT22;5180;50.832;5.390;2022-12-05T07:45:05;2.50;99.90
10270;DHT22;5180;50.832;5.390;2022-12-05T07:47:30;2.50;99.90
10270;DHT22;5180;50.832;5.390;2022-12-05T07:49:56;2.50;99.90
10270;DHT22;5180;50.832;5.390;2022-12-05T07:52:22;2.50;99.90
10270;DHT22;5180;50.832;5.390;2022-12-05T07:54:47;2.50;99.90
10270;DHT22;5180;50.832;5.390;2022-12-05T07:57:13;2.50;99.90
10270;DHT22;5180;50.832;5.390;2022-12-05T07:59:38;2.50;99.90
10270;DHT22;5180;50.832;5.390;2022-12-05T08:02:04;2.50;99.90
10270;DHT22;5180;50.832;5.390;2022-12-05T08:04:30;2.50;99.90
10270;DHT22;5180;50.832;5.390;2022-12-05T08:06:56;2.50;99.90
10270;DHT22;5180;50.832;5.390;2022-12-05T08:09:21;2.50;99.90
10270;DHT22;5180;50.832;5.390;2022-12-05T08:11:47;2.50;99.90
10270;DHT22;5180;50.832;5.390;2022-12-05T08:14:12;2.50;99.90
10270;DHT22;5180;50.832;5.390;2022-12-05T08:16:38;2.60;99.90
10270;DHT22;5180;50.832;5.390;2022-12-05T08:19:06;2.60;99.90
10270;DHT22;5180;50.832;5.390;2022-12-05T08:21:33;2.60;99.90
10270;DHT22;5180;50.832;5.390;2022-12-05T08:23:59;2.60;99.90
10270;DHT22;5180;50.832;5.390;2022-12-05T08:26:27;2.60;99.90
10270;DHT22;5180;50.832;5.390;2022-12-05T08:29:02;2.60;99.90
10270;DHT22;5180;50.832;5.390;2022-12-05T08:31:30;2.70;99.90
10270;DHT22;5180;50.832;5.390;2022-12-05T08:33:57;2.70;99.90
10270;DHT22;5180;50.832;5.390;2022-12-05T08:36:23;2.70;99.90
10270;DHT22;5180;50.832;5.390;2022-12-05T08:38:49;2.70;99.90
10270;DHT22;5180;50.832;5.390;2022-12-05T08:41:16;2.70;99.90
10270;DHT22;5180;50.832;5.390;2022-12-05T08:43:43;2.80;99.90
10270;DHT22;5180;50.832;5.390;2022-12-05T08:46:09;2.80;99.90
10270;DHT22;5180;50.832;5.390;2022-12-05T08:48:35;2.80;99.90
10270;DHT22;5180;50.832;5.390;2022-12-05T08:51:09;2.80;99.90
10270;DHT22;5180;50.832;5.390;2022-12-05T08:53:36;2.80;99.90
10270;DHT22;5180;50.832;5.390;2022-12-05T08:56:04;2.80;99.90
10270;DHT22;5180;50.832;5.390;2022-12-05T08:58:30;2.80;99.90
10270;DHT22;5180;50.832;5.390;2022-12-05T09:01:25;2.80;99.90
10270;DHT22;5180;50.832;5.390;2022-12-05T09:03:55;2.90;99.90
10270;DHT22;5180;50.832;5.390;2022-12-05T09:06:23;2.90;99.90
10270;DHT22;5180;50.832;5.390;2022-12-05T09:08:53;3.00;99.90
10270;DHT22;5180;50.832;5.390;2022-12-05T09:11:22;3.10;99.90
10270;DHT22;5180;50.832;5.390;2022-12-05T09:13:49;3.10;99.90
10270;DHT22;5180;50.832;5.390;2022-12-05T09:16:18;3.10;99.90
10270;DHT22;5180;50.832;5.390;2022-12-05T09:18:44;3.20;99.90
10270;DHT22;5180;50.832;5.390;2022-12-05T09:21:16;3.30;99.90
10270;DHT22;5180;50.832;5.390;2022-12-05T09:23:43;3.30;99.90
10270;DHT22;5180;50.832;5.390;2022-12-05T09:26:11;3.40;99.90
10270;DHT22;5180;50.832;5.390;2022-12-05T09:28:38;3.40;99.90
10270;DHT22;5180;50.832;5.390;2022-12-05T09:31:06;3.60;99.90
10270;DHT22;5180;50.832;5.390;2022-12-05T09:33:35;3.70;99.90
10270;DHT22;5180;50.832;5.390;2022-12-05T09:36:08;3.80;99.90
10270;DHT22;5180;50.832;5.390;2022-12-05T09:38:35;3.90;99.90
10270;DHT22;5180;50.832;5.390;2022-12-05T09:43:44;4.00;99.90
10270;DHT22;5180;50.832;5.390;2022-12-05T09:46:40;4.10;99.90
10270;DHT22;5180;50.832;5.390;2022-12-05T09:49:11;4.30;99.90
10270;DHT22;5180;50.832;5.390;2022-12-05T09:51:40;4.40;99.90
10270;DHT22;5180;50.832;5.390;2022-12-05T09:54:10;4.60;99.90
10270;DHT22;5180;50.832;5.390;2022-12-05T09:56:37;4.70;99.90
10270;DHT22;5180;50.832;5.390;2022-12-05T09:59:03;4.80;99.90
10270;DHT22;5180;50.832;5.390;2022-12-05T10:01:40;4.80;99.90
10270;DHT22;5180;50.832;5.390;2022-12-05T10:07:28;4.90;99.90
10270;DHT22;5180;50.832;5.390;2022-12-05T10:10:15;4.90;99.90
10270;DHT22;5180;50.832;5.390;2022-12-05T10:12:57;5.00;99.90
10270;DHT22;5180;50.832;5.390;2022-12-05T10:15:31;5.00;99.90
10270;DHT22;5180;50.832;5.390;2022-12-05T10:18:28;5.00;99.90
10270;DHT22;5180;50.832;5.390;2022-12-05T10:21:01;5.10;99.90
10270;DHT22;5180;50.832;5.390;2022-12-05T10:23:38;5.00;99.90
10270;DHT22;5180;50.832;5.390;2022-12-05T10:26:10;4.90;99.90
10270;DHT22;5180;50.832;5.390;2022-12-05T10:28:41;4.80;99.90
10270;DHT22;5180;50.832;5.390;2022-12-05T10:31:13;4.70;99.90
10270;DHT22;5180;50.832;5.390;2022-12-05T10:33:46;4.70;99.90
10270;DHT22;5180;50.832;5.390;2022-12-05T10:36:13;4.60;99.90
10270;DHT22;5180;50.832;5.390;2022-12-05T10:38:41;4.60;99.90
10270;DHT22;5180;50.832;5.390;2022-12-05T10:41:10;4.50;99.90
10270;DHT22;5180;50.832;5.390;2022-12-05T10:43:39;4.40;99.90
10270;DHT22;5180;50.832;5.390;2022-12-05T10:46:06;4.40;99.90
10270;DHT22;5180;50.832;5.390;2022-12-05T10:48:37;4.20;99.90
10270;DHT22;5180;50.832;5.390;2022-12-05T10:51:05;4.20;99.90
10270;DHT22;5180;50.832;5.390;2022-12-05T10:53:51;4.00;99.90
10270;DHT22;5180;50.832;5.390;2022-12-05T10:59:06;3.80;99.90
10270;DHT22;5180;50.832;5.390;2022-12-05T11:01:32;3.70;99.90
10270;DHT22;5180;50.832;5.390;2022-12-05T11:04:05;3.60;99.90
10270;DHT22;5180;50.832;5.390;2022-12-05T11:06:33;3.60;99.90
10270;DHT22;5180;50.832;5.390;2022-12-05T11:09:05;3.60;99.90
10270;DHT22;5180;50.832;5.390;2022-12-05T11:11:37;3.60;99.90
10270;DHT22;5180;50.832;5.390;2022-12-05T11:14:26;3.50;99.90
10270;DHT22;5180;50.832;5.390;2022-12-05T11:16:56;3.60;99.90
10270;DHT22;5180;50.832;5.390;2022-12-05T11:19:32;3.60;99.90
10270;DHT22;5180;50.832;5.390;2022-12-05T11:21:58;3.50;99.90
10270;DHT22;5180;50.832;5.390;2022-12-05T11:26:49;3.70;99.90
10270;DHT22;5180;50.832;5.390;2022-12-05T11:29:37;3.70;99.90
10270;DHT22;5180;50.832;5.390;2022-12-05T11:32:08;3.80;99.90
10270;DHT22;5180;50.832;5.390;2022-12-05T11:35:29;3.70;99.90
10270;DHT22;5180;50.832;5.390;2022-12-05T11:40:16;3.80;99.90
10270;DHT22;5180;50.832;5.390;2022-12-05T11:46:00;4.00;99.90
10270;DHT22;5180;50.832;5.390;2022-12-05T11:57:40;4.30;99.90
10270;DHT22;5180;50.832;5.390;2022-12-05T12:14:00;4.10;99.90
10270;DHT22;5180;50.832;5.390;2022-12-05T12:30:21;4.20;99.90
10270;DHT22;5180;50.832;5.390;2022-12-05T12:32:58;4.20;99.90
10270;DHT22;5180;50.832;5.390;2022-12-05T12:35:28;4.10;99.90
10270;DHT22;5180;50.832;5.390;2022-12-05T12:40:58;4.00;99.90
10270;DHT22;5180;50.832;5.390;2022-12-05T12:52:19;4.10;99.90
10270;DHT22;5180;50.832;5.390;2022-12-05T13:03:26;4.10;99.90
10270;DHT22;5180;50.832;5.390;2022-12-05T13:09:30;4.10;99.90
10270;DHT22;5180;50.832;5.390;2022-12-05T13:12:03;4.00;99.90
10270;DHT22;5180;50.832;5.390;2022-12-05T13:14:33;4.00;99.90
10270;DHT22;5180;50.832;5.390;2022-12-05T13:17:00;4.00;99.90
10270;DHT22;5180;50.832;5.390;2022-12-05T13:19:43;4.00;99.90
10270;DHT22;5180;50.832;5.390;2022-12-05T13:22:10;4.00;99.90
10270;DHT22;5180;50.832;5.390;2022-12-05T13:24:36;4.00;99.90
10270;DHT22;5180;50.832;5.390;2022-12-05T13:27:07;4.10;99.90
10270;DHT22;5180;50.832;5.390;2022-12-05T13:29:37;4.00;99.90
10270;DHT22;5180;50.832;5.390;2022-12-05T13:32:05;4.00;99.90
10270;DHT22;5180;50.832;5.390;2022-12-05T13:34:48;4.00;99.90
10270;DHT22;5180;50.832;5.390;2022-12-05T13:37:28;4.00;99.90
10270;DHT22;5180;50.832;5.390;2022-12-05T13:40:31;4.00;99.90
10270;DHT22;5180;50.832;5.390;2022-12-05T13:43:19;4.00;99.90
10270;DHT22;5180;50.832;5.390;2022-12-05T13:46:18;3.90;99.90
10270;DHT22;5180;50.832;5.390;2022-12-05T13:48:47;3.90;99.90
10270;DHT22;5180;50.832;5.390;2022-12-05T13:51:32;3.90;99.90
10270;DHT22;5180;50.832;5.390;2022-12-05T13:54:04;3.90;99.90
10270;DHT22;5180;50.832;5.390;2022-12-05T13:56:55;3.90;99.90
10270;DHT22;5180;50.832;5.390;2022-12-05T14:00:00;3.90;99.90
10270;DHT22;5180;50.832;5.390;2022-12-05T14:07:49;3.70;99.90
10270;DHT22;5180;50.832;5.390;2022-12-05T14:10:17;3.60;99.90
10270;DHT22;5180;50.832;5.390;2022-12-05T14:15:36;3.60;99.90
10270;DHT22;5180;50.832;5.390;2022-12-05T14:18:32;3.60;99.90
10270;DHT22;5180;50.832;5.390;2022-12-05T14:21:07;3.60;99.90
10270;DHT22;5180;50.832;5.390;2022-12-05T14:24:01;3.50;99.90
10270;DHT22;5180;50.832;5.390;2022-12-05T14:29:38;3.50;99.90
10270;DHT22;5180;50.832;5.390;2022-12-05T14:32:21;3.40;99.90
10270;DHT22;5180;50.832;5.390;2022-12-05T14:35:27;3.40;99.90
10270;DHT22;5180;50.832;5.390;2022-12-05T14:38:07;3.40;99.90
10270;DHT22;5180;50.832;5.390;2022-12-05T14:40:43;3.40;99.90
10270;DHT22;5180;50.832;5.390;2022-12-05T14:50:46;3.20;99.90
10270;DHT22;5180;50.832;5.390;2022-12-05T14:53:29;3.20;99.90
10270;DHT22;5180;50.832;5.390;2022-12-05T14:58:38;3.00;99.90
10270;DHT22;5180;50.832;5.390;2022-12-05T15:03:46;3.00;99.90
10270;DHT22;5180;50.832;5.390;2022-12-05T15:06:15;3.00;99.90
10270;DHT22;5180;50.832;5.390;2022-12-05T15:08:48;2.90;99.90
10270;DHT22;5180;50.832;5.390;2022-12-05T15:11:17;2.90;99.90
10270;DHT22;5180;50.832;5.390;2022-12-05T15:13:56;2.90;99.90
10270;DHT22;5180;50.832;5.390;2022-12-05T15:16:23;2.80;99.90
10270;DHT22;5180;50.832;5.390;2022-12-05T15:18:57;2.80;99.90
10270;DHT22;5180;50.832;5.390;2022-12-05T15:21:42;2.80;99.90
10270;DHT22;5180;50.832;5.390;2022-12-05T15:24:16;2.70;99.90
10270;DHT22;5180;50.832;5.390;2022-12-05T15:26:53;2.70;99.90
10270;DHT22;5180;50.832;5.390;2022-12-05T15:34:25;2.60;99.90
10270;DHT22;5180;50.832;5.390;2022-12-05T15:42:18;2.60;99.90
10270;DHT22;5180;50.832;5.390;2022-12-05T15:44:44;2.60;99.90
10270;DHT22;5180;50.832;5.390;2022-12-05T15:47:24;2.60;99.90
10270;DHT22;5180;50.832;5.390;2022-12-05T15:49:50;2.60;99.90
10270;DHT22;5180;50.832;5.390;2022-12-05T15:52:49;2.70;99.90
10270;DHT22;5180;50.832;5.390;2022-12-05T15:55:22;2.70;99.90
10270;DHT22;5180;50.832;5.390;2022-12-05T15:57:54;2.70;99.90
10270;DHT22;5180;50.832;5.390;2022-12-05T16:00:22;2.70;99.90
10270;DHT22;5180;50.832;5.390;2022-12-05T16:02:58;2.70;99.90
10270;DHT22;5180;50.832;5.390;2022-12-05T16:05:30;2.80;99.90
10270;DHT22;5180;50.832;5.390;2022-12-05T16:07:59;2.80;99.90
10270;DHT22;5180;50.832;5.390;2022-12-05T16:10:25;2.80;99.90
10270;DHT22;5180;50.832;5.390;2022-12-05T16:12:51;2.80;99.90
10270;DHT22;5180;50.832;5.390;2022-12-05T16:15:25;2.80;99.90
10270;DHT22;5180;50.832;5.390;2022-12-05T16:17:57;2.80;99.90
10270;DHT22;5180;50.832;5.390;2022-12-05T16:20:35;2.80;99.90
10270;DHT22;5180;50.832;5.390;2022-12-05T16:23:03;2.80;99.90
10270;DHT22;5180;50.832;5.390;2022-12-05T16:25:31;2.80;99.90
10270;DHT22;5180;50.832;5.390;2022-12-05T16:30:33;2.80;99.90
10270;DHT22;5180;50.832;5.390;2022-12-05T16:33:20;2.80;99.90
10270;DHT22;5180;50.832;5.390;2022-12-05T16:35:46;2.80;99.90
10270;DHT22;5180;50.832;5.390;2022-12-05T16:38:24;2.80;99.90
10270;DHT22;5180;50.832;5.390;2022-12-05T16:45:57;2.80;99.90
10270;DHT22;5180;50.832;5.390;2022-12-05T16:48:30;2.80;99.90
10270;DHT22;5180;50.832;5.390;2022-12-05T16:51:16;2.80;99.90
10270;DHT22;5180;50.832;5.390;2022-12-05T16:53:48;2.80;99.90
10270;DHT22;5180;50.832;5.390;2022-12-05T16:56:18;2.90;99.90
10270;DHT22;5180;50.832;5.390;2022-12-05T16:58:45;2.90;99.90
10270;DHT22;5180;50.832;5.390;2022-12-05T17:01:16;2.90;99.90
10270;DHT22;5180;50.832;5.390;2022-12-05T17:03:42;2.90;99.90
10270;DHT22;5180;50.832;5.390;2022-12-05T17:06:08;3.00;99.90
10270;DHT22;5180;50.832;5.390;2022-12-05T17:08:33;3.00;99.90
10270;DHT22;5180;50.832;5.390;2022-12-05T17:10:59;3.00;99.90
10270;DHT22;5180;50.832;5.390;2022-12-05T17:13:29;3.00;99.90
10270;DHT22;5180;50.832;5.390;2022-12-05T17:15:54;3.00;99.90
10270;DHT22;5180;50.832;5.390;2022-12-05T17:18:21;3.00;99.90
10270;DHT22;5180;50.832;5.390;2022-12-05T17:20:54;3.10;99.90
10270;DHT22;5180;50.832;5.390;2022-12-05T17:23:20;3.10;99.90
10270;DHT22;5180;50.832;5.390;2022-12-05T17:25:51;3.10;99.90
10270;DHT22;5180;50.832;5.390;2022-12-05T17:28:17;3.10;99.90
10270;DHT22;5180;50.832;5.390;2022-12-05T17:30:42;3.10;99.90
10270;DHT22;5180;50.832;5.390;2022-12-05T17:33:13;3.10;99.90
10270;DHT22;5180;50.832;5.390;2022-12-05T17:35:39;3.10;99.90
10270;DHT22;5180;50.832;5.390;2022-12-05T17:38:05;3.10;99.90
10270;DHT22;5180;50.832;5.390;2022-12-05T17:40:32;3.20;99.90
10270;DHT22;5180;50.832;5.390;2022-12-05T17:42:58;3.20;99.90
10270;DHT22;5180;50.832;5.390;2022-12-05T17:45:24;3.20;99.90
10270;DHT22;5180;50.832;5.390;2022-12-05T17:47:50;3.20;99.90
10270;DHT22;5180;50.832;5.390;2022-12-05T17:50:18;3.30;99.90
10270;DHT22;5180;50.832;5.390;2022-12-05T17:52:44;3.30;99.90
10270;DHT22;5180;50.832;5.390;2022-12-05T17:55:17;3.30;99.90
10270;DHT22;5180;50.832;5.390;2022-12-05T17:57:43;3.40;99.90
10270;DHT22;5180;50.832;5.390;2022-12-05T18:00:11;3.30;99.90
10270;DHT22;5180;50.832;5.390;2022-12-05T18:02:37;3.40;99.90
10270;DHT22;5180;50.832;5.390;2022-12-05T18:05:03;3.30;99.90
10270;DHT22;5180;50.832;5.390;2022-12-05T18:07:29;3.30;99.90
10270;DHT22;5180;50.832;5.390;2022-12-05T18:09:54;3.30;99.90
10270;DHT22;5180;50.832;5.390;2022-12-05T18:12:20;3.20;99.90
10270;DHT22;5180;50.832;5.390;2022-12-05T18:14:46;3.20;99.90
10270;DHT22;5180;50.832;5.390;2022-12-05T18:17:11;3.20;99.90
10270;DHT22;5180;50.832;5.390;2022-12-05T18:19:37;3.10;99.90
10270;DHT22;5180;50.832;5.390;2022-12-05T18:22:03;3.10;99.90
10270;DHT22;5180;50.832;5.390;2022-12-05T18:24:29;3.10;99.90
10270;DHT22;5180;50.832;5.390;2022-12-05T18:26:54;3.10;99.90
10270;DHT22;5180;50.832;5.390;2022-12-05T18:29:21;3.10;99.90
10270;DHT22;5180;50.832;5.390;2022-12-05T18:31:47;3.10;99.90
10270;DHT22;5180;50.832;5.390;2022-12-05T18:34:14;3.10;99.90
10270;DHT22;5180;50.832;5.390;2022-12-05T18:36:40;3.10;99.90
10270;DHT22;5180;50.832;5.390;2022-12-05T18:39:06;3.10;99.90
10270;DHT22;5180;50.832;5.390;2022-12-05T18:41:32;3.20;99.90
10270;DHT22;5180;50.832;5.390;2022-12-05T18:43:57;3.20;99.90
10270;DHT22;5180;50.832;5.390;2022-12-05T18:46:23;3.20;99.90
10270;DHT22;5180;50.832;5.390;2022-12-05T18:48:49;3.20;99.90
10270;DHT22;5180;50.832;5.390;2022-12-05T18:51:16;3.20;99.90
10270;DHT22;5180;50.832;5.390;2022-12-05T18:53:43;3.20;99.90